CYXJ

Fort St John Airport

Fort St.John, British Columbia, Canada
METAR CYXJ 201400Z 01012G18KT 3SM -RA BR BKN006 OVC028 12/12 A2993 RMK SF6SC2 CIG RAG SLP146 DENSITY ALT 2500FT
Observed Flight Rules
Jul-20 @ 14:00 UTC (35 minutes ago) Instrument Flight Rules
Wind Visibility Clouds Conditions
10° at 12 knots
 Gusting to 18 knots
3 miles
  • Broken at 600' AGL
  • Overcast at 2,800' AGL
  • Light Rain
  • Mist
Temperatures Readings
Current 12°C / 54°F
Dewpoint 12°C / 54°F
Humidity 100%
Altimeter 29.93" Hg
Pressure 1014.6 hPa
Elevation 695
METAR CYXJ 201400Z 01012G18KT 3SM -RA BR BKN006 OVC028 12/12 A2993 RMK SF6SC2 CIG RAG SLP146 DENSITY ALT 2500FT
Observed Flight Rules
Jul-20 @ 14:00 UTC
(35 minutes ago)
IFR
Wind Visibility
10° at 12 knots
 Gusting to 18 knots
3 miles
Clouds
  • Broken at 600' AGL
  • Overcast at 2,800' AGL
Conditions
  • Light Rain
  • Mist
Temperature Dewpoint
12°C / 54°F 12°C / 54°F
Humidity Altimeter Pressure
100% 29.93" Hg 1014.6 hPa